Time;durP1;ratioP1;P1;durP2;ratioP2;P2;SDS_P1;SDS_P2;PMS_P1;PMS_P2;Temp;Humidity;BMP_temperature;BMP_pressure;BME280_temperature;BME280_humidity;BME280_pressure;Samples;Min_cycle;Max_cycle;Signal;HPM_P1;HPM_P2
2022/08/31 00:04:18;;;;;;;9.50;9.20;;;18.50;99.90;;;;;;6262033;22;20187;-81
2022/08/31 00:06:50;;;;;;;9.25;8.95;;;18.60;99.90;;;;;;6261828;22;20206;-81
2022/08/31 00:09:17;;;;;;;9.50;9.20;;;18.60;99.90;;;;;;6263337;22;20250;-81
2022/08/31 00:11:47;;;;;;;9.30;9.00;;;18.60;99.90;;;;;;6264856;22;20198;-82
2022/08/31 00:14:27;;;;;;;8.95;8.75;;;18.60;99.90;;;;;;6260524;22;20205;-81
2022/08/31 00:16:55;;;;;;;9.00;8.80;;;18.60;99.90;;;;;;6260619;22;20190;-81
2022/08/31 00:19:24;;;;;;;9.25;8.95;;;18.60;99.90;;;;;;6259665;22;20209;-82
2022/08/31 00:21:54;;;;;;;8.70;8.50;;;18.60;99.90;;;;;;6259697;22;20332;-81
2022/08/31 00:24:23;;;;;;;8.93;8.73;;;18.60;99.90;;;;;;6258901;22;20205;-81
2022/08/31 00:26:52;;;;;;;8.82;8.63;;;18.60;99.90;;;;;;6258438;22;20202;-81
2022/08/31 00:29:29;;;;;;;9.43;9.13;;;18.60;99.90;;;;;;6259810;22;20198;-81
2022/08/31 00:32:01;;;;;;;9.40;9.10;;;18.60;99.90;;;;;;6260004;22;20197;-81
2022/08/31 00:34:33;;;;;;;9.15;8.85;;;18.60;99.90;;;;;;6259312;22;20217;-82
2022/08/31 00:37:03;;;;;;;8.70;8.50;;;18.70;99.90;;;;;;6259487;22;20206;-81
2022/08/31 00:39:31;;;;;;;8.90;8.70;;;18.60;99.90;;;;;;6261379;22;20194;-81
2022/08/31 00:42:00;;;;;;;9.00;8.80;;;18.60;99.90;;;;;;6271478;22;20214;-81
2022/08/31 00:44:31;;;;;;;8.90;8.70;;;18.50;99.90;;;;;;6266185;22;20220;-81
2022/08/31 00:46:59;;;;;;;8.77;8.57;;;18.50;99.90;;;;;;6274058;22;20194;-81
2022/08/31 00:49:31;;;;;;;8.90;8.70;;;18.50;99.90;;;;;;6274020;22;20194;-81
2022/08/31 00:52:03;;;;;;;8.90;8.70;;;18.40;99.90;;;;;;6275158;22;20197;-81
2022/08/31 00:54:37;;;;;;;8.77;8.57;;;18.20;99.90;;;;;;6274240;22;20190;-82
2022/08/31 00:57:06;;;;;;;8.85;8.65;;;18.20;99.90;;;;;;6275184;22;20182;-81
2022/08/31 01:02:22;;;;;;;9.35;9.05;;;18.10;99.90;;;;;;6272200;22;20241;-81
2022/08/31 01:04:51;;;;;;;9.20;8.90;;;18.10;99.90;;;;;;6273686;22;20205;-82
2022/08/31 01:07:20;;;;;;;9.07;8.80;;;18.20;99.90;;;;;;6272779;22;20206;-81
2022/08/31 01:09:50;;;;;;;9.18;8.88;;;18.10;99.90;;;;;;6273198;22;20229;-81
2022/08/31 01:12:19;;;;;;;9.30;9.00;;;18.10;99.90;;;;;;6268953;22;20234;-81
2022/08/31 01:14:58;;;;;;;9.30;9.00;;;18.10;99.90;;;;;;6265992;22;20671;-81
2022/08/31 01:17:27;;;;;;;8.90;8.70;;;18.10;99.90;;;;;;6265473;22;20253;-82
2022/08/31 01:20:06;;;;;;;9.20;8.90;;;18.10;99.90;;;;;;6266933;22;20249;-81
2022/08/31 01:22:43;;;;;;;8.52;8.32;;;18.10;99.90;;;;;;6267319;22;20190;-81
2022/08/31 01:25:14;;;;;;;9.20;8.90;;;18.10;99.90;;;;;;6260675;22;20197;-82
2022/08/31 01:27:42;;;;;;;9.10;8.80;;;18.10;99.90;;;;;;6261570;22;20206;-82
2022/08/31 01:30:14;;;;;;;9.02;8.80;;;17.90;99.90;;;;;;6260809;22;20644;-81
2022/08/31 01:32:43;;;;;;;8.80;8.60;;;17.90;99.90;;;;;;6261088;22;20198;-81
2022/08/31 01:35:11;;;;;;;8.48;8.27;;;17.90;99.90;;;;;;6260156;22;20281;-81
2022/08/31 01:37:40;;;;;;;8.77;8.57;;;17.80;99.90;;;;;;6260135;22;20202;-81
2022/08/31 01:40:10;;;;;;;9.20;8.90;;;17.80;99.90;;;;;;6260842;22;20201;-81
2022/08/31 01:42:42;;;;;;;9.25;8.95;;;17.80;99.90;;;;;;6262554;22;20193;-81
2022/08/31 01:45:11;;;;;;;9.20;8.90;;;17.80;99.90;;;;;;6261236;22;20194;-81
2022/08/31 01:47:39;;;;;;;9.20;8.90;;;17.80;99.90;;;;;;6260451;22;20221;-81
2022/08/31 01:50:08;;;;;;;9.32;9.02;;;17.80;99.90;;;;;;6260897;22;20202;-81
2022/08/31 01:52:38;;;;;;;9.13;8.82;;;17.70;99.90;;;;;;6260996;22;20194;-81
2022/08/31 01:55:07;;;;;;;8.80;8.60;;;17.70;99.90;;;;;;6258912;22;20237;-82
2022/08/31 01:57:36;;;;;;;9.27;8.98;;;17.70;99.90;;;;;;6261187;22;20214;-81
2022/08/31 02:00:14;;;;;;;9.30;9.00;;;17.60;99.90;;;;;;6261093;22;20203;-81
2022/08/31 02:02:43;;;;;;;8.80;8.60;;;17.60;99.90;;;;;;6260378;22;20317;-80
2022/08/31 02:05:13;;;;;;;8.95;8.75;;;17.60;99.90;;;;;;6259807;22;20222;-80
2022/08/31 02:07:42;;;;;;;9.15;8.85;;;17.70;99.90;;;;;;6259481;22;20206;-80
2022/08/31 02:10:12;;;;;;;8.70;8.50;;;17.70;99.90;;;;;;6260089;22;20260;-79
2022/08/31 02:12:42;;;;;;;8.77;8.57;;;17.70;99.90;;;;;;6260212;22;20202;-80
2022/08/31 02:15:13;;;;;;;9.40;9.10;;;17.70;99.90;;;;;;6259762;22;20187;-81
2022/08/31 02:17:41;;;;;;;9.40;9.10;;;17.70;99.90;;;;;;6260872;22;20302;-80
2022/08/31 02:20:12;;;;;;;8.98;8.77;;;17.60;99.90;;;;;;6260518;22;20260;-80
2022/08/31 02:22:40;;;;;;;9.30;9.00;;;17.60;99.90;;;;;;6261776;22;20190;-80
2022/08/31 02:25:10;;;;;;;9.40;9.10;;;17.60;99.90;;;;;;6260411;22;20194;-80
2022/08/31 02:27:38;;;;;;;9.05;8.80;;;17.50;99.90;;;;;;6261331;22;20213;-80
2022/08/31 02:30:09;;;;;;;9.35;9.05;;;17.50;99.90;;;;;;6261608;22;20248;-81
2022/08/31 02:32:39;;;;;;;9.30;9.00;;;17.50;99.90;;;;;;6269965;22;20174;-80
2022/08/31 02:35:08;;;;;;;9.15;8.85;;;17.50;99.90;;;;;;6274615;22;20213;-80
2022/08/31 02:37:37;;;;;;;9.30;9.00;;;17.40;99.90;;;;;;6272263;22;20203;-80
2022/08/31 02:40:07;;;;;;;9.20;8.90;;;17.40;99.90;;;;;;6265412;22;20198;-80
2022/08/31 02:42:37;;;;;;;9.13;8.82;;;17.40;99.90;;;;;;6264712;22;20254;-80
2022/08/31 02:45:06;;;;;;;9.45;9.15;;;17.30;99.90;;;;;;6263354;22;20265;-81
2022/08/31 02:47:35;;;;;;;9.30;9.00;;;17.30;99.90;;;;;;6262131;22;20210;-80
2022/08/31 02:50:11;;;;;;;9.25;8.95;;;17.40;99.90;;;;;;6261621;22;20241;-80
2022/08/31 02:52:43;;;;;;;8.80;8.60;;;17.20;99.90;;;;;;6261645;22;20200;-80
2022/08/31 02:55:12;;;;;;;9.20;8.90;;;17.10;99.90;;;;;;6260896;22;20207;-80
2022/08/31 02:57:42;;;;;;;8.90;8.70;;;17.00;99.90;;;;;;6270229;22;20225;-80
2022/08/31 03:00:12;;;;;;;8.90;8.70;;;17.00;99.90;;;;;;6265902;22;20272;-80
2022/08/31 03:02:42;;;;;;;8.98;8.77;;;17.00;99.90;;;;;;6262888;22;20205;-81
2022/08/31 03:05:13;;;;;;;9.40;9.10;;;16.90;99.90;;;;;;6261502;22;20201;-81
2022/08/31 03:07:42;;;;;;;8.90;8.70;;;16.90;99.90;;;;;;6261847;22;20206;-80
2022/08/31 03:10:19;;;;;;;8.75;8.55;;;16.90;99.90;;;;;;6261838;22;20194;-80
2022/08/31 03:12:47;;;;;;;8.95;8.70;;;17.00;99.90;;;;;;6262310;22;20265;-80
2022/08/31 03:15:16;;;;;;;9.23;8.93;;;17.00;99.90;;;;;;6260901;22;20205;-80
2022/08/31 03:17:46;;;;;;;9.15;8.85;;;17.00;99.90;;;;;;6262699;22;20198;-81
2022/08/31 03:20:24;;;;;;;9.50;9.20;;;17.00;99.90;;;;;;6262281;22;20194;-81
2022/08/31 03:22:53;;;;;;;9.30;9.00;;;16.90;99.90;;;;;;6262662;22;20241;-81
2022/08/31 03:25:25;;;;;;;9.20;8.90;;;16.90;99.90;;;;;;6261478;22;20202;-81
2022/08/31 03:27:52;;;;;;;9.50;9.20;;;16.90;99.90;;;;;;6263139;22;20206;-80
2022/08/31 03:30:22;;;;;;;9.60;9.30;;;16.90;99.90;;;;;;6262501;22;20191;-79
2022/08/31 03:32:51;;;;;;;9.32;9.02;;;16.90;99.90;;;;;;6263486;22;20229;-81
2022/08/31 03:35:30;;;;;;;9.25;8.95;;;16.90;99.90;;;;;;6262670;22;20206;-81
2022/08/31 03:37:59;;;;;;;9.00;8.80;;;16.90;99.90;;;;;;6263612;22;20213;-80
2022/08/31 03:40:28;;;;;;;8.90;8.70;;;16.90;99.90;;;;;;6264270;22;20277;-80
2022/08/31 03:42:57;;;;;;;8.80;8.60;;;17.00;99.90;;;;;;6264796;22;20191;-81
2022/08/31 03:45:27;;;;;;;8.88;8.68;;;17.00;99.90;;;;;;6266156;22;20214;-81
2022/08/31 03:47:58;;;;;;;8.80;8.60;;;17.10;99.90;;;;;;6266925;22;20277;-80
2022/08/31 03:50:29;;;;;;;8.63;8.43;;;17.10;99.90;;;;;;6275519;22;20190;-80
2022/08/31 03:52:56;;;;;;;8.90;8.70;;;17.10;99.90;;;;;;6279528;22;20213;-80
2022/08/31 03:55:27;;;;;;;8.52;8.32;;;17.10;99.90;;;;;;6278749;22;20230;-80
2022/08/31 03:57:55;;;;;;;9.02;8.82;;;17.10;99.90;;;;;;6276533;22;20197;-80
2022/08/31 04:00:24;;;;;;;8.93;8.73;;;17.10;99.90;;;;;;6276495;22;20198;-80
2022/08/31 04:02:56;;;;;;;8.80;8.60;;;17.00;99.90;;;;;;6276534;22;20207;-79
2022/08/31 04:05:23;;;;;;;8.80;8.60;;;17.10;99.90;;;;;;6275577;22;20196;-80
2022/08/31 04:07:59;;;;;;;9.07;8.80;;;17.10;99.90;;;;;;6277309;22;20249;-80
2022/08/31 04:10:28;;;;;;;8.80;8.60;;;17.10;99.90;;;;;;6276252;22;20185;-80
2022/08/31 04:13:02;;;;;;;9.23;8.93;;;17.00;99.90;;;;;;6275789;22;20191;-80
2022/08/31 04:15:30;;;;;;;9.23;8.93;;;17.00;99.90;;;;;;6277995;22;20182;-81
2022/08/31 04:17:59;;;;;;;9.75;9.45;;;17.00;99.90;;;;;;6278399;22;20198;-81
2022/08/31 04:20:28;;;;;;;9.55;9.25;;;16.90;99.90;;;;;;6278961;22;20194;-81
2022/08/31 04:23:01;;;;;;;9.80;9.50;;;16.80;99.90;;;;;;6279128;22;20241;-79
2022/08/31 04:25:29;;;;;;;9.68;9.38;;;16.80;99.90;;;;;;6278050;22;20175;-80
2022/08/31 04:27:57;;;;;;;9.40;9.10;;;16.80;99.90;;;;;;6278000;22;20197;-81
2022/08/31 04:30:26;;;;;;;9.73;9.43;;;16.80;99.90;;;;;;6278669;22;20197;-80
2022/08/31 04:32:55;;;;;;;9.40;9.10;;;16.80;99.90;;;;;;6277431;22;20217;-81
2022/08/31 04:35:24;;;;;;;9.52;9.23;;;16.90;99.90;;;;;;6275788;22;20183;-80
2022/08/31 04:37:57;;;;;;;9.50;9.20;;;16.90;99.90;;;;;;6275098;22;20194;-81
2022/08/31 04:40:28;;;;;;;9.30;9.00;;;16.90;99.90;;;;;;6261957;22;20186;-81
2022/08/31 04:42:56;;;;;;;9.30;9.00;;;16.90;99.90;;;;;;6260600;22;20202;-80
2022/08/31 04:45:25;;;;;;;8.80;8.60;;;16.90;99.90;;;;;;6259171;22;21089;-80
2022/08/31 04:47:54;;;;;;;9.10;8.80;;;16.90;99.90;;;;;;6259203;22;20202;-80
2022/08/31 04:50:23;;;;;;;9.00;8.70;;;16.90;99.90;;;;;;6259430;22;20206;-80
2022/08/31 04:52:54;;;;;;;8.88;8.68;;;16.80;99.90;;;;;;6259893;22;20265;-80
2022/08/31 04:55:23;;;;;;;8.75;8.55;;;16.80;99.90;;;;;;6267371;22;20181;-81
2022/08/31 04:57:56;;;;;;;9.20;8.90;;;16.80;99.90;;;;;;6267264;22;20193;-80
2022/08/31 05:00:24;;;;;;;9.20;8.90;;;16.80;99.90;;;;;;6263339;22;20194;-81
2022/08/31 05:02:53;;;;;;;9.50;9.20;;;16.90;99.90;;;;;;6262290;22;20194;-80
2022/08/31 05:05:21;;;;;;;9.50;9.20;;;16.80;99.90;;;;;;6260741;22;20212;-81
2022/08/31 05:07:50;;;;;;;9.60;9.30;;;16.70;99.90;;;;;;6262490;22;20210;-81
2022/08/31 05:10:20;;;;;;;9.27;8.98;;;16.70;99.90;;;;;;6261806;22;20199;-81
2022/08/31 05:12:50;;;;;;;9.30;9.00;;;16.70;99.90;;;;;;6261879;22;20193;-81
2022/08/31 05:15:21;;;;;;;9.40;9.10;;;16.70;99.90;;;;;;6260474;22;20213;-80
2022/08/31 05:17:52;;;;;;;9.32;9.02;;;16.70;99.90;;;;;;6256933;22;20182;-86
2022/08/31 05:20:27;;;;;;;9.05;8.80;;;16.80;99.90;;;;;;6258837;22;20197;-85
2022/08/31 05:22:55;;;;;;;9.10;8.80;;;16.80;99.90;;;;;;6259145;22;20186;-86
2022/08/31 05:25:27;;;;;;;9.50;9.20;;;16.80;99.90;;;;;;6258277;22;20206;-86
2022/08/31 05:28:06;;;;;;;9.68;9.38;;;16.80;99.90;;;;;;6259336;22;20225;-86
2022/08/31 05:33:38;;;;;;;9.40;9.10;;;16.80;99.90;;;;;;6256674;22;20190;-86
2022/08/31 05:36:09;;;;;;;9.23;8.93;;;16.90;99.90;;;;;;6258345;22;20198;-86
2022/08/31 05:41:27;;;;;;;9.40;9.10;;;17.10;99.90;;;;;;6254550;22;20659;-85
2022/08/31 05:44:06;;;;;;;9.40;9.10;;;17.20;99.90;;;;;;6258858;22;20255;-86
2022/08/31 05:46:49;;;;;;;9.50;9.20;;;17.20;99.90;;;;;;6258474;22;20214;-86
2022/08/31 05:49:19;;;;;;;9.30;9.00;;;17.20;99.90;;;;;;6258959;22;20205;-85
2022/08/31 05:54:47;;;;;;;9.35;9.05;;;17.30;99.90;;;;;;6258799;22;20198;-86
2022/08/31 05:57:24;;;;;;;9.60;9.30;;;17.40;99.90;;;;;;6259029;22;20193;-86
2022/08/31 06:02:47;;;;;;;9.40;9.10;;;17.60;99.90;;;;;;6258608;22;20198;-85
2022/08/31 06:05:16;;;;;;;9.48;9.18;;;17.60;99.90;;;;;;6258164;22;20196;-86
2022/08/31 06:07:54;;;;;;;9.35;9.05;;;17.70;99.90;;;;;;6258121;22;20197;-86
2022/08/31 06:10:35;;;;;;;9.50;9.20;;;17.80;99.90;;;;;;6258226;22;20209;-86
2022/08/31 06:13:13;;;;;;;9.40;9.10;;;17.80;99.90;;;;;;6258757;22;20258;-86
2022/08/31 06:15:51;;;;;;;9.60;9.30;;;17.90;99.90;;;;;;6257776;22;20198;-84
2022/08/31 06:21:14;;;;;;;9.50;9.20;;;18.00;99.90;;;;;;6255898;22;20229;-84
2022/08/31 06:24:02;;;;;;;9.68;9.38;;;18.10;99.90;;;;;;6259135;22;20237;-85
2022/08/31 06:32:29;;;;;;;10.25;9.95;;;18.20;99.90;;;;;;6256936;22;20281;-85
2022/08/31 06:35:34;;;;;;;10.48;10.18;;;18.20;99.90;;;;;;6262606;22;20190;-85
2022/08/31 06:38:09;;;;;;;10.52;10.23;;;18.30;99.90;;;;;;6262286;22;20257;-86
2022/08/31 06:40:46;;;;;;;10.40;10.10;;;18.40;99.90;;;;;;6276802;22;20197;-84
2022/08/31 06:43:23;;;;;;;10.43;10.13;;;18.50;99.90;;;;;;6281125;22;20166;-84
2022/08/31 06:46:06;;;;;;;10.35;10.05;;;18.50;99.90;;;;;;6280371;22;20225;-84
2022/08/31 06:48:41;;;;;;;10.50;10.20;;;18.60;99.90;;;;;;6280281;22;20189;-84
2022/08/31 06:51:23;;;;;;;10.52;10.23;;;18.70;99.90;;;;;;6263741;22;20189;-84
2022/08/31 06:54:06;;;;;;;10.30;10.00;;;18.70;99.90;;;;;;6260082;22;20204;-85
2022/08/31 06:56:43;;;;;;;10.48;10.18;;;18.70;99.90;;;;;;6258309;22;20264;-85
2022/08/31 06:59:23;;;;;;;10.65;10.35;;;18.80;99.90;;;;;;6258710;22;20280;-84
2022/08/31 07:02:02;;;;;;;10.52;10.23;;;18.80;99.90;;;;;;6258289;22;20205;-84
2022/08/31 07:04:39;;;;;;;10.60;10.30;;;18.90;99.90;;;;;;6259133;22;20219;-85
2022/08/31 07:07:20;;;;;;;10.70;10.40;;;19.10;99.90;;;;;;6259721;22;20190;-85
2022/08/31 07:10:09;;;;;;;10.90;10.60;;;19.10;99.90;;;;;;6257624;22;20201;-85
2022/08/31 07:12:45;;;;;;;10.60;10.30;;;19.20;99.90;;;;;;6258171;22;20202;-85
2022/08/31 07:15:37;;;;;;;10.75;10.45;;;19.40;99.90;;;;;;6258182;22;20212;-85
2022/08/31 07:21:19;;;;;;;10.70;10.40;;;19.40;99.90;;;;;;6258191;22;20214;-85
2022/08/31 07:24:08;;;;;;;10.80;10.50;;;19.50;99.90;;;;;;6257837;22;20222;-85
2022/08/31 07:26:45;;;;;;;10.75;10.45;;;19.40;99.90;;;;;;6256942;22;20194;-85
2022/08/31 07:29:39;;;;;;;10.85;10.55;;;19.50;99.90;;;;;;6258144;22;20227;-85
2022/08/31 07:32:31;;;;;;;10.55;10.25;;;19.60;99.90;;;;;;6257747;22;20198;-85
2022/08/31 07:35:11;;;;;;;10.60;10.30;;;19.60;99.90;;;;;;6257258;22;20265;-85
2022/08/31 07:46:45;;;;;;;10.48;10.18;;;19.90;99.90;;;;;;6248274;22;20198;-85
2022/08/31 07:49:39;;;;;;;10.90;10.60;;;19.90;99.90;;;;;;6257721;22;20198;-86
2022/08/31 07:52:36;;;;;;;10.55;10.25;;;20.00;99.90;;;;;;6258825;22;20302;-84
2022/08/31 07:55:13;;;;;;;10.95;10.65;;;20.00;99.90;;;;;;6257496;22;20198;-85
2022/08/31 08:04:00;;;;;;;11.32;10.93;;;20.20;99.90;;;;;;6258042;22;20194;-85
2022/08/31 08:06:45;;;;;;;11.23;10.82;;;20.30;99.90;;;;;;6258483;22;20198;-86
2022/08/31 08:09:22;;;;;;;11.48;11.07;;;20.30;99.90;;;;;;6258269;22;20205;-84
2022/08/31 08:12:20;;;;;;;11.20;10.80;;;20.40;99.90;;;;;;6273869;22;20202;-85
2022/08/31 08:15:23;;;;;;;11.15;10.75;;;20.50;99.90;;;;;;6278870;22;20198;-86
2022/08/31 08:18:17;;;;;;;11.25;10.85;;;20.70;99.90;;;;;;6270946;22;20229;-86
2022/08/31 08:21:02;;;;;;;11.45;11.05;;;20.60;99.90;;;;;;6258901;22;20252;-86
2022/08/31 08:23:54;;;;;;;11.30;10.90;;;20.70;99.90;;;;;;6258415;22;20198;-86
2022/08/31 08:26:46;;;;;;;11.27;10.88;;;20.70;99.90;;;;;;6258263;22;20358;-85
2022/08/31 08:29:37;;;;;;;11.30;10.90;;;20.80;99.90;;;;;;6257406;22;20301;-86
2022/08/31 08:32:27;;;;;;;11.07;10.68;;;20.90;99.90;;;;;;6258007;22;20253;-86
2022/08/31 08:38:12;;;;;;;11.15;10.75;;;21.10;99.90;;;;;;6257691;22;20284;-84
2022/08/31 08:41:25;;;;;;;11.13;10.73;;;21.20;99.90;;;;;;6259762;22;20194;-84
2022/08/31 08:44:12;;;;;;;11.75;11.35;;;21.30;99.90;;;;;;6280427;22;20185;-83
2022/08/31 08:47:02;;;;;;;10.38;10.07;;;21.40;99.90;;;;;;6272252;22;20190;-85
2022/08/31 08:50:30;;;;;;;10.82;10.52;;;21.60;99.90;;;;;;6258471;22;20217;-85
2022/08/31 08:53:23;;;;;;;10.90;10.60;;;21.60;99.90;;;;;;6244347;22;20308;-84
2022/08/31 08:56:12;;;;;;;10.77;10.48;;;21.70;99.90;;;;;;6256911;22;20285;-85
2022/08/31 08:58:57;;;;;;;11.27;10.95;;;21.80;99.90;;;;;;6258237;22;20286;-84
2022/08/31 09:01:36;;;;;;;10.90;10.60;;;22.10;99.90;;;;;;6257879;22;20256;-85
2022/08/31 09:04:47;;;;;;;10.80;10.50;;;22.30;99.90;;;;;;6257694;22;20204;-85
2022/08/31 09:11:16;;;;;;;10.60;10.30;;;22.40;99.90;;;;;;6256683;22;20292;-84
2022/08/31 09:14:06;;;;;;;10.43;10.13;;;22.30;99.90;;;;;;6257361;22;20190;-84
2022/08/31 09:16:51;;;;;;;10.70;10.40;;;22.40;99.90;;;;;;6256588;22;20198;-84
2022/08/31 09:19:56;;;;;;;10.82;10.52;;;22.50;99.90;;;;;;6257393;22;20217;-84
2022/08/31 09:22:54;;;;;;;10.70;10.40;;;22.60;99.90;;;;;;6256087;22;20205;-84
2022/08/31 09:25:37;;;;;;;10.80;10.50;;;22.90;99.90;;;;;;6256252;22;20205;-84
2022/08/31 09:31:37;;;;;;;10.80;10.50;;;23.50;99.90;;;;;;6254153;22;20209;-86
2022/08/31 09:34:35;;;;;;;10.80;10.50;;;23.50;99.90;;;;;;6257536;22;20213;-85
2022/08/31 09:37:44;;;;;;;10.77;10.48;;;23.60;99.90;;;;;;6257386;22;20244;-85
2022/08/31 09:43:38;;;;;;;10.95;10.65;;;23.90;99.90;;;;;;6275733;22;20232;-84
2022/08/31 09:46:24;;;;;;;10.70;10.40;;;24.10;99.90;;;;;;6274714;22;20186;-86
2022/08/31 09:49:33;;;;;;;11.00;10.70;;;24.20;99.90;;;;;;6258413;22;20285;-85
2022/08/31 09:55:50;;;;;;;10.98;10.68;;;24.20;99.90;;;;;;6195112;22;20339;-86
2022/08/31 09:58:44;;;;;;;10.90;10.60;;;24.20;99.90;;;;;;6258174;22;20218;-86
2022/08/31 10:01:31;;;;;;;10.90;10.60;;;24.30;99.90;;;;;;6258347;22;20202;-85
2022/08/31 10:04:46;;;;;;;10.98;10.68;;;24.40;99.90;;;;;;6258714;22;20202;-85
2022/08/31 10:07:52;;;;;;;11.63;11.23;;;24.80;99.90;;;;;;6238185;22;20209;-86
2022/08/31 10:11:02;;;;;;;11.02;10.73;;;25.10;99.90;;;;;;6258473;22;20206;-86
2022/08/31 10:14:03;;;;;;;11.30;11.00;;;25.20;99.90;;;;;;6258375;22;20221;-86
2022/08/31 10:16:46;;;;;;;10.98;10.68;;;25.40;99.90;;;;;;6257955;22;20190;-84
2022/08/31 10:19:31;;;;;;;11.07;10.77;;;25.60;99.90;;;;;;6258577;22;20202;-85
2022/08/31 10:22:24;;;;;;;10.88;10.57;;;25.80;99.90;;;;;;6258919;22;20272;-85
2022/08/31 10:25:41;;;;;;;10.70;10.40;;;25.80;99.90;;;;;;6258054;22;20194;-85
2022/08/31 10:35:23;;;;;;;10.68;10.38;;;25.50;99.90;;;;;;6209614;22;20201;-85
2022/08/31 10:38:09;;;;;;;10.35;10.05;;;25.50;99.90;;;;;;6257859;22;20248;-85
2022/08/31 10:41:00;;;;;;;10.70;10.40;;;25.50;99.90;;;;;;6258154;22;20193;-85
2022/08/31 10:43:47;;;;;;;10.43;10.13;;;25.50;99.90;;;;;;6257777;22;20225;-85
2022/08/31 10:46:49;;;;;;;10.90;10.60;;;25.40;99.90;;;;;;6257410;22;20198;-84
2022/08/31 10:49:27;;;;;;;10.80;10.50;;;25.40;99.90;;;;;;6257969;22;20248;-85
2022/08/31 10:52:17;;;;;;;10.80;10.50;;;25.50;99.90;;;;;;6257552;22;20274;-86
2022/08/31 10:55:06;;;;;;;10.63;10.32;;;25.40;99.90;;;;;;6257795;22;20198;-85
2022/08/31 10:58:10;;;;;;;10.80;10.50;;;25.40;99.90;;;;;;6257316;22;20206;-85
2022/08/31 11:01:02;;;;;;;10.60;10.30;;;25.40;99.90;;;;;;6258025;22;20190;-85
2022/08/31 11:04:35;;;;;;;10.68;10.38;;;25.10;99.90;;;;;;6258072;22;20210;-85
2022/08/31 11:07:57;;;;;;;10.57;10.27;;;24.80;99.90;;;;;;6202130;22;20205;-85
2022/08/31 11:10:45;;;;;;;10.77;10.48;;;24.60;99.90;;;;;;6258038;22;20257;-85
2022/08/31 11:13:54;;;;;;;10.52;10.23;;;24.70;99.90;;;;;;6258034;22;20199;-85
2022/08/31 14:39:36;;;;;;;;;;;;;;;;;;;;;
2022/08/31 14:53:36;;;;;;;8.90;8.70;;;18.90;99.90;;;;;;6136848;23;20184;-89
2022/08/31 15:17:32;;;;;;;9.18;8.88;;;19.60;99.90;;;;;;6081249;23;20200;-89
2022/08/31 16:01:19;;;;;;;9.90;9.60;;;21.10;99.90;;;;;;6253738;22;20228;-87
2022/08/31 16:03:56;;;;;;;9.30;9.00;;;21.10;99.90;;;;;;6256903;22;20290;-85
2022/08/31 17:24:05;;;;;;;9.05;8.77;;;20.10;99.90;;;;;;6259323;22;20202;-86
2022/08/31 17:26:48;;;;;;;8.80;8.60;;;20.00;99.90;;;;;;6265898;22;20198;-85
2022/08/31 17:29:42;;;;;;;8.80;8.60;;;20.00;99.90;;;;;;6271439;22;20201;-83
2022/08/31 17:32:24;;;;;;;9.20;8.90;;;19.90;99.90;;;;;;6270036;22;20264;-84
2022/08/31 17:38:22;;;;;;;9.00;8.80;;;19.90;99.90;;;;;;6257434;22;20190;-85
2022/08/31 17:47:49;;;;;;;9.65;9.35;;;19.60;99.90;;;;;;6263298;22;20210;-85
2022/08/31 17:53:51;;;;;;;9.02;8.80;;;19.40;99.90;;;;;;6253885;22;20214;-84
2022/08/31 17:56:52;;;;;;;8.90;8.70;;;19.30;99.90;;;;;;6257124;22;20218;-85
2022/08/31 17:59:27;;;;;;;8.80;8.60;;;19.30;99.90;;;;;;6247605;22;20239;-84
2022/08/31 18:02:24;;;;;;;8.60;8.40;;;19.20;99.90;;;;;;6257565;22;20284;-85
2022/08/31 18:11:29;;;;;;;8.63;8.43;;;19.20;99.90;;;;;;6252700;22;20214;-84
2022/08/31 18:17:21;;;;;;;8.05;7.85;;;19.00;99.90;;;;;;6254605;22;20209;-84
2022/08/31 18:20:27;;;;;;;8.75;8.55;;;19.00;99.90;;;;;;6258076;22;20216;-84
2022/08/31 18:23:19;;;;;;;8.50;8.30;;;19.00;99.90;;;;;;6258140;22;20202;-84
2022/08/31 18:29:21;;;;;;;8.23;8.02;;;18.80;99.90;;;;;;6255176;22;20208;-85
2022/08/31 18:32:13;;;;;;;8.13;7.93;;;18.80;99.90;;;;;;6258767;22;20213;-85
2022/08/31 18:38:00;;;;;;;8.35;8.15;;;18.70;99.90;;;;;;6257149;22;20197;-85
2022/08/31 18:47:02;;;;;;;8.90;8.70;;;18.50;99.90;;;;;;6258411;22;20195;-85
2022/08/31 18:49:43;;;;;;;8.70;8.50;;;18.50;99.90;;;;;;6258911;22;20209;-85
2022/08/31 18:52:39;;;;;;;8.80;8.60;;;18.50;99.90;;;;;;6258805;22;20206;-85
2022/08/31 18:58:49;;;;;;;8.70;8.50;;;18.30;99.90;;;;;;6256876;22;20226;-84
2022/08/31 19:13:21;;;;;;;8.70;8.50;;;18.20;99.90;;;;;;6256625;22;20190;-85
2022/08/31 19:16:03;;;;;;;8.40;8.20;;;18.10;99.90;;;;;;6258543;22;20190;-84
2022/08/31 19:19:01;;;;;;;8.30;8.10;;;18.10;99.90;;;;;;6258845;22;20229;-85
2022/08/31 19:22:18;;;;;;;8.50;8.30;;;18.10;99.90;;;;;;6259361;22;20202;-85
2022/08/31 19:24:53;;;;;;;8.10;7.90;;;18.10;99.90;;;;;;6259387;22;20201;-85
2022/08/31 19:34:39;;;;;;;8.00;7.80;;;17.90;99.90;;;;;;6255648;22;20194;-85
2022/08/31 19:40:26;;;;;;;7.80;7.60;;;17.80;99.90;;;;;;6254913;22;20236;-84
2022/08/31 19:43:20;;;;;;;7.75;7.55;;;17.70;99.90;;;;;;6259350;22;20194;-84
2022/08/31 19:52:08;;;;;;;7.88;7.68;;;17.60;99.90;;;;;;6257784;22;20206;-85
2022/08/31 19:55:29;;;;;;;7.60;7.40;;;17.70;99.90;;;;;;6258511;22;20198;-85
2022/08/31 19:58:06;;;;;;;7.70;7.50;;;17.70;99.90;;;;;;6259150;22;20229;-83
2022/08/31 20:10:17;;;;;;;7.65;7.45;;;17.70;99.90;;;;;;6256324;22;20197;-84
2022/08/31 20:13:04;;;;;;;8.00;7.80;;;17.70;99.90;;;;;;6264494;22;20233;-82
2022/08/31 20:21:43;;;;;;;8.70;8.50;;;17.70;99.90;;;;;;6277123;22;20271;-83
2022/08/31 20:24:19;;;;;;;8.50;8.30;;;17.70;99.90;;;;;;6279083;22;20225;-84
2022/08/31 20:27:09;;;;;;;8.77;8.57;;;17.70;99.90;;;;;;6278702;22;20196;-84
2022/08/31 20:29:47;;;;;;;8.38;8.18;;;17.70;99.90;;;;;;6279032;22;20194;-84
2022/08/31 20:35:20;;;;;;;8.55;8.35;;;17.70;99.90;;;;;;6277837;22;20194;-82
2022/08/31 20:40:50;;;;;;;8.60;8.40;;;17.80;99.90;;;;;;6261395;22;20203;-85
2022/08/31 20:50:00;;;;;;;8.75;8.55;;;17.70;99.90;;;;;;6260997;22;20194;-85
2022/08/31 20:52:41;;;;;;;8.95;8.70;;;17.80;99.90;;;;;;6260121;22;20270;-84
2022/08/31 20:55:34;;;;;;;8.70;8.50;;;17.80;99.90;;;;;;6258747;22;20202;-86
2022/08/31 20:58:14;;;;;;;8.77;8.57;;;17.90;99.90;;;;;;6259891;22;20194;-85
2022/08/31 21:01:00;;;;;;;8.70;8.50;;;17.90;99.90;;;;;;6260211;22;20201;-85
2022/08/31 21:03:39;;;;;;;8.02;7.82;;;17.90;99.90;;;;;;6260357;22;20194;-85
2022/08/31 21:12:21;;;;;;;8.60;8.40;;;17.90;99.90;;;;;;6254613;22;20294;-85
2022/08/31 21:18:05;;;;;;;8.60;8.40;;;18.00;99.90;;;;;;6261122;22;20198;-85
2022/08/31 21:48:53;;;;;;;8.90;8.70;;;17.70;99.90;;;;;;5140040;27;20276;-85
2022/08/31 21:51:42;;;;;;;8.80;8.60;;;17.70;99.90;;;;;;5119905;28;20267;-85
2022/08/31 21:57:53;;;;;;;8.70;8.50;;;17.70;99.90;;;;;;5107915;28;20224;-85
2022/08/31 22:00:57;;;;;;;8.60;8.40;;;17.60;99.90;;;;;;5119456;28;20288;-86
2022/08/31 22:03:53;;;;;;;8.77;8.57;;;17.70;99.90;;;;;;5119332;28;20251;-85
2022/08/31 22:10:01;;;;;;;8.80;8.60;;;17.70;99.90;;;;;;5100929;28;20237;-85
2022/08/31 22:12:51;;;;;;;8.70;8.50;;;17.80;99.90;;;;;;5118840;28;20224;-85
2022/08/31 22:15:35;;;;;;;8.80;8.60;;;17.70;99.90;;;;;;5118394;28;20291;-85
2022/08/31 22:18:20;;;;;;;8.75;8.55;;;17.80;99.90;;;;;;5118191;28;20231;-85
2022/08/31 22:21:05;;;;;;;8.80;8.60;;;17.70;99.90;;;;;;5119111;28;20225;-85
2022/08/31 22:23:39;;;;;;;8.60;8.40;;;17.70;99.90;;;;;;5118547;28;20297;-85
2022/08/31 22:26:16;;;;;;;8.70;8.50;;;17.70;99.90;;;;;;5118319;28;20221;-84
2022/08/31 22:32:24;;;;;;;8.45;8.25;;;17.70;99.90;;;;;;5118461;28;20220;-85
2022/08/31 22:34:56;;;;;;;8.90;8.70;;;17.60;99.90;;;;;;5116714;28;20236;-84
2022/08/31 22:37:37;;;;;;;8.45;8.25;;;17.60;99.90;;;;;;5119957;28;20237;-85
2022/08/31 22:40:29;;;;;;;8.50;8.30;;;17.60;99.90;;;;;;5119083;28;20296;-84
2022/08/31 22:43:21;;;;;;;8.80;8.60;;;17.60;99.90;;;;;;5118373;28;20233;-84
2022/08/31 22:46:24;;;;;;;;;;;;;;;;;;;;;
2022/08/31 22:49:10;;;;;;;8.63;8.43;;;17.60;99.90;;;;;;5118520;28;20769;-85
2022/08/31 22:51:51;;;;;;;8.70;8.50;;;17.60;99.90;;;;;;5118283;28;20225;-85
2022/08/31 23:00:22;;;;;;;8.70;8.50;;;17.50;99.90;;;;;;5104118;28;20256;-84
2022/08/31 23:03:03;;;;;;;8.23;8.02;;;17.40;99.90;;;;;;5105352;28;20371;-85
2022/08/31 23:05:52;;;;;;;8.20;8.00;;;17.40;99.90;;;;;;5106236;28;20255;-85
2022/08/31 23:08:37;;;;;;;8.55;8.35;;;17.40;99.90;;;;;;5105351;28;20233;-85
2022/08/31 23:19:52;;;;;;;8.40;8.20;;;17.40;99.90;;;;;;5124923;22;20240;-81
2022/08/31 23:22:21;;;;;;;8.63;8.43;;;17.40;99.90;;;;;;5102333;28;20238;-81
2022/08/31 23:24:50;;;;;;;8.60;8.40;;;17.30;99.90;;;;;;5102486;28;20233;-80
2022/08/31 23:27:23;;;;;;;8.48;8.27;;;17.30;99.90;;;;;;5102810;28;20248;-81